• Join FlightAware (Why Join?)
  • Login
  • US Flag 
09:16PM EST


 

Airport Tracker/Info


-or-


 

Live Flight TrackerFlight Track Log ✈ N53NW ✈ 24-Oct-2013 ✈ KSAT - KAUS

Flight Track Log - Related Links

Times and Time Zones

All times are in EDT time to prevent confusion due to time zone crossing. See the N53NW flight status page for this flight to view local times or setup timezone preferences in your user account.

Time Position Orientation Groundspeed Altitude Reporting Facility
EDT Latitude Longitude Course Direction KTS MPH feet Rate Location/Type
10:57AM 29.5225 -98.4617 127° Southeast 180 207 1,800  Level Houston Center
10:58AM 29.4931 -98.4169 127° Southeast 218 251 4,600 3,313 Climbing Houston Center
10:59AM 29.4903 -98.3942 98° East 222 255 5,500 3,164 Climbing Houston Center
10:59AM 29.5197 -98.3633 42° Northeast 262 302 7,500 3,097 Climbing Houston Center
11:00AM 29.5453 -98.3511 23° Northeast 254 292 8,700 3,055 Climbing Houston Center
11:00AM 29.5797 -98.3322 25° Northeast 265 305 10,300 2,323 Climbing Houston Center
11:01AM 29.6172 -98.3167 20° North 264 304 11,100 787 Climbing Houston Center
11:01AM 29.6547 -98.3014 19° North 299 344 11,100  Level Houston Center
11:02AM 29.6969 -98.2864 17° North 300 345 11,100 -90 Level Houston Center
11:02AM 29.7400 -98.2692 19° North 307 353 11,000  Descending Houston Center
11:03AM 29.7828 -98.2533 18° North 303 349 11,100  Climbing Houston Center
11:03AM 29.8311 -98.2339 19° North 303 349 11,000  Descending Houston Center
11:04AM 29.8625 -98.2217 19° North 304 350 11,100  Climbing Houston Center
11:05AM 29.9489 -98.1883 18° North 303 349 11,000  Descending Houston Center
11:06AM 30.0286 -98.1575 19° North 302 348 11,100 -145 Climbing Houston Center
11:07AM 30.1142 -98.1217 20° North 304 350 10,700 -1,016 Descending Houston Center
11:08AM 30.1519 -98.0392 62° Northeast 286 329 9,000 -1,839 Descending Houston Center
11:09AM 30.1858 -97.9622 63° Northeast 272 313 6,900 -2,081 Descending Houston Center
11:10AM 30.2222 -97.8822 62° Northeast 262 302 4,700 -1,872 Descending Houston Center
11:11AM 30.2703 -97.8325 42° Northeast 255 293 3,000 -768 Descending Houston Center
11:12AM 30.3178 -97.7867 40° Northeast 228 262 3,100 48 Climbing Houston Center
11:13AM 30.3547 -97.7439 45° Northeast 197 227 3,100 48 Level Houston Center
11:14AM 30.3569 -97.6731 88° East 192 221 3,200 -194 Climbing Houston Center
11:15AM 30.3178 -97.6617 166° South 161 185 2,700 -581 Descending Houston Center
11:16AM 30.2831 -97.6597 177° South 140 161 2,000 -581 Descending Houston Center
11:17AM 30.2519 -97.6586 178° South 123 142 1,500 -484 Descending Houston Center
11:18AM 30.2183 -97.6583 180° South 114 131 1,000 -484 Descending Houston Center
11:20AM 30.1945 -97.6699 210° Southwest  Level Estimated
11:27AM 30.1945 -97.6699 210° Southwest  Level Estimated